sensor_id;sensor_type;location;lat;lon;timestamp;temperature;humidity
62072;DHT22;48031;48.542;13.232;2022-07-06T00:01:48;18.00;7.30
62072;DHT22;48031;48.542;13.232;2022-07-06T00:04:17;17.90;4.40
62072;DHT22;48031;48.542;13.232;2022-07-06T00:06:44;17.80;4.80
62072;DHT22;48031;48.542;13.232;2022-07-06T00:09:11;17.80;5.50
62072;DHT22;48031;48.542;13.232;2022-07-06T00:11:38;17.70;7.60
62072;DHT22;48031;48.542;13.232;2022-07-06T00:14:05;17.60;7.80
62072;DHT22;48031;48.542;13.232;2022-07-06T00:16:32;17.60;8.30
62072;DHT22;48031;48.542;13.232;2022-07-06T00:19:00;17.60;8.50
62072;DHT22;48031;48.542;13.232;2022-07-06T00:21:27;17.50;9.60
62072;DHT22;48031;48.542;13.232;2022-07-06T00:23:53;17.40;9.80
62072;DHT22;48031;48.542;13.232;2022-07-06T00:26:21;17.40;9.10
62072;DHT22;48031;48.542;13.232;2022-07-06T00:28:47;17.30;4.80
62072;DHT22;48031;48.542;13.232;2022-07-06T00:31:14;17.30;4.00
62072;DHT22;48031;48.542;13.232;2022-07-06T00:33:42;17.30;6.10
62072;DHT22;48031;48.542;13.232;2022-07-06T00:36:10;17.20;9.30
62072;DHT22;48031;48.542;13.232;2022-07-06T00:38:37;17.20;11.20
62072;DHT22;48031;48.542;13.232;2022-07-06T00:41:04;17.20;9.60
62072;DHT22;48031;48.542;13.232;2022-07-06T00:43:47;17.10;9.60
62072;DHT22;48031;48.542;13.232;2022-07-06T00:46:14;17.10;12.20
62072;DHT22;48031;48.542;13.232;2022-07-06T00:48:41;17.00;13.80
62072;DHT22;48031;48.542;13.232;2022-07-06T00:51:08;16.90;12.30
62072;DHT22;48031;48.542;13.232;2022-07-06T00:53:35;16.90;10.40
62072;DHT22;48031;48.542;13.232;2022-07-06T00:56:02;16.90;9.80
62072;DHT22;48031;48.542;13.232;2022-07-06T00:58:30;16.80;12.20
62072;DHT22;48031;48.542;13.232;2022-07-06T01:00:57;16.70;13.20
62072;DHT22;48031;48.542;13.232;2022-07-06T01:03:24;16.70;13.40
62072;DHT22;48031;48.542;13.232;2022-07-06T01:05:51;16.70;13.40
62072;DHT22;48031;48.542;13.232;2022-07-06T01:08:18;16.60;13.30
62072;DHT22;48031;48.542;13.232;2022-07-06T01:10:45;16.50;15.10
62072;DHT22;48031;48.542;13.232;2022-07-06T01:13:12;16.50;15.80
62072;DHT22;48031;48.542;13.232;2022-07-06T01:15:39;16.40;16.90
62072;DHT22;48031;48.542;13.232;2022-07-06T01:18:08;16.40;17.50
62072;DHT22;48031;48.542;13.232;2022-07-06T01:20:36;16.30;20.40
62072;DHT22;48031;48.542;13.232;2022-07-06T01:23:02;16.30;20.20
62072;DHT22;48031;48.542;13.232;2022-07-06T01:25:29;16.30;20.40
62072;DHT22;48031;48.542;13.232;2022-07-06T01:27:57;16.20;21.60
62072;DHT22;48031;48.542;13.232;2022-07-06T01:30:24;16.10;22.50
62072;DHT22;48031;48.542;13.232;2022-07-06T01:32:51;16.10;21.40
62072;DHT22;48031;48.542;13.232;2022-07-06T01:35:18;16.10;20.80
62072;DHT22;48031;48.542;13.232;2022-07-06T01:37:45;16.10;21.80
62072;DHT22;48031;48.542;13.232;2022-07-06T01:40:13;16.00;20.80
62072;DHT22;48031;48.542;13.232;2022-07-06T01:42:40;16.10;19.50
62072;DHT22;48031;48.542;13.232;2022-07-06T01:45:07;16.00;18.50
62072;DHT22;48031;48.542;13.232;2022-07-06T01:47:36;16.00;16.90
62072;DHT22;48031;48.542;13.232;2022-07-06T01:50:05;16.00;15.50
62072;DHT22;48031;48.542;13.232;2022-07-06T01:52:34;16.00;15.10
62072;DHT22;48031;48.542;13.232;2022-07-06T01:55:02;16.00;14.10
62072;DHT22;48031;48.542;13.232;2022-07-06T01:57:32;15.90;12.80
62072;DHT22;48031;48.542;13.232;2022-07-06T01:59:59;15.90;13.00
62072;DHT22;48031;48.542;13.232;2022-07-06T02:02:26;15.90;13.60
62072;DHT22;48031;48.542;13.232;2022-07-06T02:04:53;15.90;12.50
62072;DHT22;48031;48.542;13.232;2022-07-06T02:07:21;15.90;11.50
62072;DHT22;48031;48.542;13.232;2022-07-06T02:09:48;15.90;11.40
62072;DHT22;48031;48.542;13.232;2022-07-06T02:12:15;15.80;13.60
62072;DHT22;48031;48.542;13.232;2022-07-06T02:14:42;15.80;15.60
62072;DHT22;48031;48.542;13.232;2022-07-06T02:17:09;15.80;17.60
62072;DHT22;48031;48.542;13.232;2022-07-06T02:19:36;15.80;19.00
62072;DHT22;48031;48.542;13.232;2022-07-06T02:22:03;15.70;19.90
62072;DHT22;48031;48.542;13.232;2022-07-06T02:24:32;15.70;22.50
62072;DHT22;48031;48.542;13.232;2022-07-06T02:26:59;15.70;23.40
62072;DHT22;48031;48.542;13.232;2022-07-06T02:29:26;15.60;23.60
62072;DHT22;48031;48.542;13.232;2022-07-06T02:31:53;15.60;25.20
62072;DHT22;48031;48.542;13.232;2022-07-06T02:34:20;15.60;25.60
62072;DHT22;48031;48.542;13.232;2022-07-06T02:36:48;15.60;25.00
62072;DHT22;48031;48.542;13.232;2022-07-06T02:39:17;15.50;23.60
62072;DHT22;48031;48.542;13.232;2022-07-06T02:41:44;15.50;22.70
62072;DHT22;48031;48.542;13.232;2022-07-06T02:44:11;15.50;20.80
62072;DHT22;48031;48.542;13.232;2022-07-06T02:46:39;15.50;19.40
62072;DHT22;48031;48.542;13.232;2022-07-06T02:49:06;15.50;18.10
62072;DHT22;48031;48.542;13.232;2022-07-06T02:51:33;15.50;17.20
62072;DHT22;48031;48.542;13.232;2022-07-06T02:54:00;15.50;16.60
62072;DHT22;48031;48.542;13.232;2022-07-06T02:56:27;15.40;17.70
62072;DHT22;48031;48.542;13.232;2022-07-06T02:58:55;15.40;17.40
62072;DHT22;48031;48.542;13.232;2022-07-06T03:01:22;15.40;17.40
62072;DHT22;48031;48.542;13.232;2022-07-06T03:03:49;15.30;19.70
62072;DHT22;48031;48.542;13.232;2022-07-06T03:06:16;15.30;18.50
62072;DHT22;48031;48.542;13.232;2022-07-06T03:08:43;15.30;19.10
62072;DHT22;48031;48.542;13.232;2022-07-06T03:11:10;15.30;18.40
62072;DHT22;48031;48.542;13.232;2022-07-06T03:13:37;15.30;19.30
62072;DHT22;48031;48.542;13.232;2022-07-06T03:16:05;15.30;22.60
62072;DHT22;48031;48.542;13.232;2022-07-06T03:18:32;15.10;24.20
62072;DHT22;48031;48.542;13.232;2022-07-06T03:20:59;15.10;23.20
62072;DHT22;48031;48.542;13.232;2022-07-06T03:23:27;15.10;22.80
62072;DHT22;48031;48.542;13.232;2022-07-06T03:25:54;15.10;22.20
62072;DHT22;48031;48.542;13.232;2022-07-06T03:28:21;15.20;21.90
62072;DHT22;48031;48.542;13.232;2022-07-06T03:30:50;15.10;21.80
62072;DHT22;48031;48.542;13.232;2022-07-06T03:33:17;15.10;22.60
62072;DHT22;48031;48.542;13.232;2022-07-06T03:35:44;15.10;22.60
62072;DHT22;48031;48.542;13.232;2022-07-06T03:38:11;15.10;25.50
62072;DHT22;48031;48.542;13.232;2022-07-06T03:40:40;15.10;24.40
62072;DHT22;48031;48.542;13.232;2022-07-06T03:43:07;15.10;24.30
62072;DHT22;48031;48.542;13.232;2022-07-06T03:45:36;15.10;24.30
62072;DHT22;48031;48.542;13.232;2022-07-06T03:48:04;15.10;25.10
62072;DHT22;48031;48.542;13.232;2022-07-06T03:50:34;15.10;24.90
62072;DHT22;48031;48.542;13.232;2022-07-06T03:53:01;15.10;24.70
62072;DHT22;48031;48.542;13.232;2022-07-06T03:55:28;15.10;25.10
62072;DHT22;48031;48.542;13.232;2022-07-06T03:58:00;15.10;26.20
62072;DHT22;48031;48.542;13.232;2022-07-06T04:00:33;15.10;27.00
62072;DHT22;48031;48.542;13.232;2022-07-06T04:03:04;15.10;26.90
62072;DHT22;48031;48.542;13.232;2022-07-06T04:05:37;15.10;28.50
62072;DHT22;48031;48.542;13.232;2022-07-06T04:08:05;15.10;27.90
62072;DHT22;48031;48.542;13.232;2022-07-06T04:10:40;15.20;27.40
62072;DHT22;48031;48.542;13.232;2022-07-06T04:13:07;15.20;26.70
62072;DHT22;48031;48.542;13.232;2022-07-06T04:15:35;15.30;26.90
62072;DHT22;48031;48.542;13.232;2022-07-06T04:18:02;15.20;26.90
62072;DHT22;48031;48.542;13.232;2022-07-06T04:20:34;15.20;27.20
62072;DHT22;48031;48.542;13.232;2022-07-06T04:23:01;15.30;27.30
62072;DHT22;48031;48.542;13.232;2022-07-06T04:25:29;15.30;27.70
62072;DHT22;48031;48.542;13.232;2022-07-06T04:27:59;15.30;27.80
62072;DHT22;48031;48.542;13.232;2022-07-06T04:30:28;15.30;28.60
62072;DHT22;48031;48.542;13.232;2022-07-06T04:32:55;15.40;28.80
62072;DHT22;48031;48.542;13.232;2022-07-06T04:35:25;15.50;27.90
62072;DHT22;48031;48.542;13.232;2022-07-06T04:37:54;15.50;25.10
62072;DHT22;48031;48.542;13.232;2022-07-06T04:40:21;15.60;22.40
62072;DHT22;48031;48.542;13.232;2022-07-06T04:42:52;15.60;22.30
62072;DHT22;48031;48.542;13.232;2022-07-06T04:45:20;15.70;21.20
62072;DHT22;48031;48.542;13.232;2022-07-06T04:47:47;15.80;20.10
62072;DHT22;48031;48.542;13.232;2022-07-06T04:50:16;15.80;20.30
62072;DHT22;48031;48.542;13.232;2022-07-06T04:52:43;15.80;21.60
62072;DHT22;48031;48.542;13.232;2022-07-06T04:55:10;15.90;22.10
62072;DHT22;48031;48.542;13.232;2022-07-06T04:57:37;15.80;22.30
62072;DHT22;48031;48.542;13.232;2022-07-06T05:00:05;15.90;23.10
62072;DHT22;48031;48.542;13.232;2022-07-06T05:02:33;15.90;22.50
62072;DHT22;48031;48.542;13.232;2022-07-06T05:05:00;15.90;21.60
62072;DHT22;48031;48.542;13.232;2022-07-06T05:07:27;16.00;21.00
62072;DHT22;48031;48.542;13.232;2022-07-06T05:09:56;16.00;18.90
62072;DHT22;48031;48.542;13.232;2022-07-06T05:12:23;16.10;17.50
62072;DHT22;48031;48.542;13.232;2022-07-06T05:14:51;16.10;16.70
62072;DHT22;48031;48.542;13.232;2022-07-06T05:17:20;16.20;15.70
62072;DHT22;48031;48.542;13.232;2022-07-06T05:19:56;16.20;15.10
62072;DHT22;48031;48.542;13.232;2022-07-06T05:22:23;16.30;13.00
62072;DHT22;48031;48.542;13.232;2022-07-06T05:24:52;16.30;12.50
62072;DHT22;48031;48.542;13.232;2022-07-06T05:27:19;16.40;10.80
62072;DHT22;48031;48.542;13.232;2022-07-06T05:29:47;16.40;8.40
62072;DHT22;48031;48.542;13.232;2022-07-06T05:32:14;16.50;8.50
62072;DHT22;48031;48.542;13.232;2022-07-06T05:34:42;16.60;8.20
62072;DHT22;48031;48.542;13.232;2022-07-06T05:37:09;16.60;8.20
62072;DHT22;48031;48.542;13.232;2022-07-06T05:39:37;16.70;8.10
62072;DHT22;48031;48.542;13.232;2022-07-06T05:42:08;16.80;7.60
62072;DHT22;48031;48.542;13.232;2022-07-06T05:44:36;16.80;6.50
62072;DHT22;48031;48.542;13.232;2022-07-06T05:47:03;16.90;6.70
62072;DHT22;48031;48.542;13.232;2022-07-06T05:49:49;17.00;7.00
62072;DHT22;48031;48.542;13.232;2022-07-06T05:52:36;17.00;5.00
62072;DHT22;48031;48.542;13.232;2022-07-06T05:55:04;17.00;5.90
62072;DHT22;48031;48.542;13.232;2022-07-06T05:57:31;17.10;6.70
62072;DHT22;48031;48.542;13.232;2022-07-06T05:59:58;17.20;7.30
62072;DHT22;48031;48.542;13.232;2022-07-06T06:02:26;17.20;6.80
62072;DHT22;48031;48.542;13.232;2022-07-06T06:04:53;17.20;7.50
62072;DHT22;48031;48.542;13.232;2022-07-06T06:07:20;17.40;7.70
62072;DHT22;48031;48.542;13.232;2022-07-06T06:09:47;17.40;6.80
62072;DHT22;48031;48.542;13.232;2022-07-06T06:12:14;17.40;6.20
62072;DHT22;48031;48.542;13.232;2022-07-06T06:14:41;17.50;5.50
62072;DHT22;48031;48.542;13.232;2022-07-06T06:17:08;17.50;3.40
62072;DHT22;48031;48.542;13.232;2022-07-06T06:19:36;17.60;4.30
62072;DHT22;48031;48.542;13.232;2022-07-06T06:22:03;17.60;3.20
62072;DHT22;48031;48.542;13.232;2022-07-06T06:24:30;17.70;3.80
62072;DHT22;48031;48.542;13.232;2022-07-06T06:26:58;17.60;3.40
62072;DHT22;48031;48.542;13.232;2022-07-06T06:29:26;17.80;2.10
62072;DHT22;48031;48.542;13.232;2022-07-06T06:31:52;17.90;1.00
62072;DHT22;48031;48.542;13.232;2022-07-06T06:34:19;17.90;1.00
62072;DHT22;48031;48.542;13.232;2022-07-06T06:36:46;18.00;1.00
62072;DHT22;48031;48.542;13.232;2022-07-06T06:39:13;18.00;1.00
62072;DHT22;48031;48.542;13.232;2022-07-06T06:41:40;18.10;1.00
62072;DHT22;48031;48.542;13.232;2022-07-06T06:44:08;18.10;1.00
62072;DHT22;48031;48.542;13.232;2022-07-06T06:46:44;18.20;1.00
62072;DHT22;48031;48.542;13.232;2022-07-06T06:49:11;18.20;1.00
62072;DHT22;48031;48.542;13.232;2022-07-06T06:51:38;18.30;1.00
62072;DHT22;48031;48.542;13.232;2022-07-06T06:54:06;18.40;1.00
62072;DHT22;48031;48.542;13.232;2022-07-06T06:56:33;18.40;1.00
62072;DHT22;48031;48.542;13.232;2022-07-06T06:59:00;18.50;1.00
62072;DHT22;48031;48.542;13.232;2022-07-06T07:01:44;18.50;1.00
62072;DHT22;48031;48.542;13.232;2022-07-06T07:04:11;18.60;1.00
62072;DHT22;48031;48.542;13.232;2022-07-06T07:06:39;18.70;1.00
62072;DHT22;48031;48.542;13.232;2022-07-06T07:09:05;18.80;1.00
62072;DHT22;48031;48.542;13.232;2022-07-06T07:11:32;18.80;1.00
62072;DHT22;48031;48.542;13.232;2022-07-06T07:13:59;18.90;1.00
62072;DHT22;48031;48.542;13.232;2022-07-06T07:16:27;19.00;1.00
62072;DHT22;48031;48.542;13.232;2022-07-06T07:18:54;19.00;1.00
62072;DHT22;48031;48.542;13.232;2022-07-06T07:21:21;19.20;1.00
62072;DHT22;48031;48.542;13.232;2022-07-06T07:23:48;19.20;1.00
62072;DHT22;48031;48.542;13.232;2022-07-06T07:26:17;19.20;1.00
62072;DHT22;48031;48.542;13.232;2022-07-06T07:28:44;19.30;1.00
62072;DHT22;48031;48.542;13.232;2022-07-06T07:31:11;19.40;1.00
62072;DHT22;48031;48.542;13.232;2022-07-06T07:33:38;19.40;1.00
62072;DHT22;48031;48.542;13.232;2022-07-06T07:36:05;19.40;1.00
62072;DHT22;48031;48.542;13.232;2022-07-06T07:38:32;19.50;1.00
62072;DHT22;48031;48.542;13.232;2022-07-06T07:40:58;19.50;1.00
62072;DHT22;48031;48.542;13.232;2022-07-06T07:43:25;19.50;1.00
62072;DHT22;48031;48.542;13.232;2022-07-06T07:45:52;19.60;1.00
62072;DHT22;48031;48.542;13.232;2022-07-06T07:48:19;19.70;1.00
62072;DHT22;48031;48.542;13.232;2022-07-06T07:50:47;19.80;1.00
62072;DHT22;48031;48.542;13.232;2022-07-06T07:53:14;19.90;1.00
62072;DHT22;48031;48.542;13.232;2022-07-06T07:55:41;20.00;1.00
62072;DHT22;48031;48.542;13.232;2022-07-06T07:58:08;20.00;1.00
62072;DHT22;48031;48.542;13.232;2022-07-06T08:00:36;20.10;1.00
62072;DHT22;48031;48.542;13.232;2022-07-06T08:03:03;20.10;1.00
62072;DHT22;48031;48.542;13.232;2022-07-06T08:05:30;20.10;1.00
62072;DHT22;48031;48.542;13.232;2022-07-06T08:07:57;20.10;1.00
62072;DHT22;48031;48.542;13.232;2022-07-06T08:10:24;20.00;1.00
62072;DHT22;48031;48.542;13.232;2022-07-06T08:12:51;20.00;1.00
62072;DHT22;48031;48.542;13.232;2022-07-06T08:15:18;20.20;1.00
62072;DHT22;48031;48.542;13.232;2022-07-06T08:17:45;20.40;1.00
62072;DHT22;48031;48.542;13.232;2022-07-06T08:20:12;20.70;1.00
62072;DHT22;48031;48.542;13.232;2022-07-06T08:22:41;21.00;1.00
62072;DHT22;48031;48.542;13.232;2022-07-06T08:25:08;21.50;1.00
62072;DHT22;48031;48.542;13.232;2022-07-06T08:27:35;21.80;1.00
62072;DHT22;48031;48.542;13.232;2022-07-06T08:30:03;21.90;1.00
62072;DHT22;48031;48.542;13.232;2022-07-06T08:32:30;20.50;1.00
62072;DHT22;48031;48.542;13.232;2022-07-06T08:35:17;22.20;1.00
62072;DHT22;48031;48.542;13.232;2022-07-06T08:37:44;22.30;1.00
62072;DHT22;48031;48.542;13.232;2022-07-06T08:40:12;22.40;1.00
62072;DHT22;48031;48.542;13.232;2022-07-06T08:42:39;22.30;1.00
62072;DHT22;48031;48.542;13.232;2022-07-06T08:45:06;22.20;1.00
62072;DHT22;48031;48.542;13.232;2022-07-06T08:47:36;22.10;1.00
62072;DHT22;48031;48.542;13.232;2022-07-06T08:50:04;22.10;1.00
62072;DHT22;48031;48.542;13.232;2022-07-06T08:52:31;22.00;1.00
62072;DHT22;48031;48.542;13.232;2022-07-06T08:54:59;22.00;1.00
62072;DHT22;48031;48.542;13.232;2022-07-06T08:57:26;22.00;1.00
62072;DHT22;48031;48.542;13.232;2022-07-06T08:59:54;22.00;1.00
62072;DHT22;48031;48.542;13.232;2022-07-06T09:02:22;22.00;1.00
62072;DHT22;48031;48.542;13.232;2022-07-06T09:04:50;22.20;1.00
62072;DHT22;48031;48.542;13.232;2022-07-06T09:07:18;22.10;1.00
62072;DHT22;48031;48.542;13.232;2022-07-06T09:10:05;22.20;1.00
62072;DHT22;48031;48.542;13.232;2022-07-06T09:12:33;22.30;1.00
62072;DHT22;48031;48.542;13.232;2022-07-06T09:15:00;22.20;1.00
62072;DHT22;48031;48.542;13.232;2022-07-06T09:17:27;22.40;1.00
62072;DHT22;48031;48.542;13.232;2022-07-06T09:19:55;22.50;1.00
62072;DHT22;48031;48.542;13.232;2022-07-06T09:22:32;22.60;1.00
62072;DHT22;48031;48.542;13.232;2022-07-06T09:25:10;22.70;1.00
62072;DHT22;48031;48.542;13.232;2022-07-06T09:27:47;22.80;1.00
62072;DHT22;48031;48.542;13.232;2022-07-06T09:30:16;22.80;1.00
62072;DHT22;48031;48.542;13.232;2022-07-06T09:32:44;22.90;1.00
62072;DHT22;48031;48.542;13.232;2022-07-06T09:35:21;23.10;1.00
62072;DHT22;48031;48.542;13.232;2022-07-06T09:38:08;23.20;1.00
62072;DHT22;48031;48.542;13.232;2022-07-06T09:40:36;23.40;1.00
62072;DHT22;48031;48.542;13.232;2022-07-06T09:45:37;23.60;1.00
62072;DHT22;48031;48.542;13.232;2022-07-06T09:48:12;23.80;1.00
62072;DHT22;48031;48.542;13.232;2022-07-06T09:50:41;24.00;1.00
62072;DHT22;48031;48.542;13.232;2022-07-06T09:53:08;24.30;1.00
62072;DHT22;48031;48.542;13.232;2022-07-06T09:55:35;24.50;1.00
62072;DHT22;48031;48.542;13.232;2022-07-06T09:58:02;24.50;1.00
62072;DHT22;48031;48.542;13.232;2022-07-06T10:00:30;24.70;1.00
62072;DHT22;48031;48.542;13.232;2022-07-06T10:02:57;25.10;1.00
62072;DHT22;48031;48.542;13.232;2022-07-06T10:05:24;25.40;1.00
62072;DHT22;48031;48.542;13.232;2022-07-06T10:07:59;25.50;1.00
62072;DHT22;48031;48.542;13.232;2022-07-06T10:10:28;25.50;1.00
62072;DHT22;48031;48.542;13.232;2022-07-06T10:12:56;25.60;1.00
62072;DHT22;48031;48.542;13.232;2022-07-06T10:15:26;25.80;1.00
62072;DHT22;48031;48.542;13.232;2022-07-06T10:17:54;26.30;1.00
62072;DHT22;48031;48.542;13.232;2022-07-06T10:20:22;26.40;1.00
62072;DHT22;48031;48.542;13.232;2022-07-06T10:22:49;26.70;1.00
62072;DHT22;48031;48.542;13.232;2022-07-06T10:25:17;27.50;1.00
62072;DHT22;48031;48.542;13.232;2022-07-06T10:27:47;28.60;1.00
62072;DHT22;48031;48.542;13.232;2022-07-06T10:30:14;29.50;1.00
62072;DHT22;48031;48.542;13.232;2022-07-06T10:32:43;31.70;1.00
62072;DHT22;48031;48.542;13.232;2022-07-06T10:35:11;33.20;1.00
62072;DHT22;48031;48.542;13.232;2022-07-06T10:37:38;33.60;1.00
62072;DHT22;48031;48.542;13.232;2022-07-06T10:40:15;33.90;1.00
62072;DHT22;48031;48.542;13.232;2022-07-06T10:43:02;34.90;1.00
62072;DHT22;48031;48.542;13.232;2022-07-06T10:50:38;35.30;1.00
62072;DHT22;48031;48.542;13.232;2022-07-06T10:53:12;35.40;1.00
62072;DHT22;48031;48.542;13.232;2022-07-06T10:55:40;36.90;1.00
62072;DHT22;48031;48.542;13.232;2022-07-06T10:58:07;37.40;1.00
62072;DHT22;48031;48.542;13.232;2022-07-06T11:00:53;37.70;1.00
62072;DHT22;48031;48.542;13.232;2022-07-06T11:03:34;36.90;1.00
62072;DHT22;48031;48.542;13.232;2022-07-06T11:06:05;34.60;1.00
62072;DHT22;48031;48.542;13.232;2022-07-06T11:11:17;35.40;1.00
62072;DHT22;48031;48.542;13.232;2022-07-06T11:16:31;33.20;1.00
62072;DHT22;48031;48.542;13.232;2022-07-06T11:19:05;32.40;1.00
62072;DHT22;48031;48.542;13.232;2022-07-06T11:21:48;33.80;1.00
62072;DHT22;48031;48.542;13.232;2022-07-06T11:24:17;34.90;1.00
62072;DHT22;48031;48.542;13.232;2022-07-06T11:26:45;36.30;1.00
62072;DHT22;48031;48.542;13.232;2022-07-06T11:29:13;38.30;1.00
62072;DHT22;48031;48.542;13.232;2022-07-06T11:31:41;39.00;1.00
62072;DHT22;48031;48.542;13.232;2022-07-06T11:34:10;40.30;1.00
62072;DHT22;48031;48.542;13.232;2022-07-06T11:36:37;42.00;1.00
62072;DHT22;48031;48.542;13.232;2022-07-06T11:39:12;40.20;1.00
62072;DHT22;48031;48.542;13.232;2022-07-06T11:41:39;37.10;1.00
62072;DHT22;48031;48.542;13.232;2022-07-06T11:44:05;35.90;1.00
62072;DHT22;48031;48.542;13.232;2022-07-06T11:46:33;37.10;1.00
62072;DHT22;48031;48.542;13.232;2022-07-06T11:49:02;39.10;1.00
62072;DHT22;48031;48.542;13.232;2022-07-06T11:51:30;40.60;1.00
62072;DHT22;48031;48.542;13.232;2022-07-06T11:53:58;42.10;1.00
62072;DHT22;48031;48.542;13.232;2022-07-06T11:56:26;43.50;1.00
62072;DHT22;48031;48.542;13.232;2022-07-06T11:58:54;41.00;1.00
62072;DHT22;48031;48.542;13.232;2022-07-06T12:01:22;39.10;1.00
62072;DHT22;48031;48.542;13.232;2022-07-06T12:03:55;38.40;1.00
62072;DHT22;48031;48.542;13.232;2022-07-06T12:06:24;36.70;1.00
62072;DHT22;48031;48.542;13.232;2022-07-06T12:08:52;35.70;1.00
62072;DHT22;48031;48.542;13.232;2022-07-06T12:13:46;39.10;1.00
62072;DHT22;48031;48.542;13.232;2022-07-06T12:16:14;37.60;1.00
62072;DHT22;48031;48.542;13.232;2022-07-06T12:18:43;35.30;1.00
62072;DHT22;48031;48.542;13.232;2022-07-06T12:21:13;33.60;1.00
62072;DHT22;48031;48.542;13.232;2022-07-06T12:23:41;32.60;1.00
62072;DHT22;48031;48.542;13.232;2022-07-06T12:26:09;31.80;1.00
62072;DHT22;48031;48.542;13.232;2022-07-06T12:28:36;31.30;1.00
62072;DHT22;48031;48.542;13.232;2022-07-06T12:31:03;31.10;1.00
62072;DHT22;48031;48.542;13.232;2022-07-06T12:33:30;31.20;1.00
62072;DHT22;48031;48.542;13.232;2022-07-06T12:36:05;30.60;1.00
62072;DHT22;48031;48.542;13.232;2022-07-06T12:38:34;30.20;1.00
62072;DHT22;48031;48.542;13.232;2022-07-06T12:41:01;30.00;1.00
62072;DHT22;48031;48.542;13.232;2022-07-06T12:48:54;29.60;1.00
62072;DHT22;48031;48.542;13.232;2022-07-06T12:51:21;31.10;1.00
62072;DHT22;48031;48.542;13.232;2022-07-06T12:53:48;34.90;1.00
62072;DHT22;48031;48.542;13.232;2022-07-06T12:56:15;36.70;1.00
62072;DHT22;48031;48.542;13.232;2022-07-06T12:58:54;38.80;1.00
62072;DHT22;48031;48.542;13.232;2022-07-06T13:01:22;40.40;1.00
62072;DHT22;48031;48.542;13.232;2022-07-06T13:03:52;41.50;1.00
62072;DHT22;48031;48.542;13.232;2022-07-06T13:06:27;41.70;1.00
62072;DHT22;48031;48.542;13.232;2022-07-06T13:08:54;41.70;1.00
62072;DHT22;48031;48.542;13.232;2022-07-06T13:11:21;40.70;1.00
62072;DHT22;48031;48.542;13.232;2022-07-06T13:13:48;39.30;1.00
62072;DHT22;48031;48.542;13.232;2022-07-06T13:16:15;37.70;1.00
62072;DHT22;48031;48.542;13.232;2022-07-06T13:18:42;36.00;1.00
62072;DHT22;48031;48.542;13.232;2022-07-06T13:21:09;34.50;1.00
62072;DHT22;48031;48.542;13.232;2022-07-06T13:23:37;32.20;1.00
62072;DHT22;48031;48.542;13.232;2022-07-06T13:26:04;31.90;1.00
62072;DHT22;48031;48.542;13.232;2022-07-06T13:28:31;33.10;1.00
62072;DHT22;48031;48.542;13.232;2022-07-06T13:30:58;36.20;1.00
62072;DHT22;48031;48.542;13.232;2022-07-06T13:33:25;38.10;1.00
62072;DHT22;48031;48.542;13.232;2022-07-06T13:35:53;38.90;1.00
62072;DHT22;48031;48.542;13.232;2022-07-06T13:38:20;40.00;1.00
62072;DHT22;48031;48.542;13.232;2022-07-06T13:40:46;39.90;1.00
62072;DHT22;48031;48.542;13.232;2022-07-06T13:43:13;41.00;1.00
62072;DHT22;48031;48.542;13.232;2022-07-06T13:45:40;39.70;1.00
62072;DHT22;48031;48.542;13.232;2022-07-06T13:48:08;37.70;1.00
62072;DHT22;48031;48.542;13.232;2022-07-06T13:50:35;35.40;1.00
62072;DHT22;48031;48.542;13.232;2022-07-06T13:53:01;34.10;1.00
62072;DHT22;48031;48.542;13.232;2022-07-06T13:55:29;33.20;1.00
62072;DHT22;48031;48.542;13.232;2022-07-06T13:57:56;33.00;1.00
62072;DHT22;48031;48.542;13.232;2022-07-06T14:00:23;33.60;1.00
62072;DHT22;48031;48.542;13.232;2022-07-06T14:02:50;35.10;1.00
62072;DHT22;48031;48.542;13.232;2022-07-06T14:05:17;35.70;1.00
62072;DHT22;48031;48.542;13.232;2022-07-06T14:07:44;34.50;1.00
62072;DHT22;48031;48.542;13.232;2022-07-06T14:10:11;35.30;1.00
62072;DHT22;48031;48.542;13.232;2022-07-06T14:12:38;36.40;1.00
62072;DHT22;48031;48.542;13.232;2022-07-06T14:15:06;36.20;1.00
62072;DHT22;48031;48.542;13.232;2022-07-06T14:17:33;35.90;1.00
62072;DHT22;48031;48.542;13.232;2022-07-06T14:20:00;36.20;1.00
62072;DHT22;48031;48.542;13.232;2022-07-06T14:22:27;35.80;1.00
62072;DHT22;48031;48.542;13.232;2022-07-06T14:24:54;36.20;1.00
62072;DHT22;48031;48.542;13.232;2022-07-06T14:27:21;37.90;1.00
62072;DHT22;48031;48.542;13.232;2022-07-06T14:29:48;37.00;1.00
62072;DHT22;48031;48.542;13.232;2022-07-06T14:32:15;35.50;1.00
62072;DHT22;48031;48.542;13.232;2022-07-06T14:34:42;35.20;1.00
62072;DHT22;48031;48.542;13.232;2022-07-06T14:37:09;36.70;1.00
62072;DHT22;48031;48.542;13.232;2022-07-06T14:39:42;37.10;1.00
62072;DHT22;48031;48.542;13.232;2022-07-06T14:42:09;37.10;1.00
62072;DHT22;48031;48.542;13.232;2022-07-06T14:44:36;36.60;1.00
62072;DHT22;48031;48.542;13.232;2022-07-06T14:47:03;34.80;1.00
62072;DHT22;48031;48.542;13.232;2022-07-06T14:49:31;34.30;1.00
62072;DHT22;48031;48.542;13.232;2022-07-06T14:51:58;33.70;1.00
62072;DHT22;48031;48.542;13.232;2022-07-06T14:54:25;32.60;1.00
62072;DHT22;48031;48.542;13.232;2022-07-06T14:56:52;31.80;1.00
62072;DHT22;48031;48.542;13.232;2022-07-06T14:59:19;31.50;1.00
62072;DHT22;48031;48.542;13.232;2022-07-06T15:01:51;31.50;1.00
62072;DHT22;48031;48.542;13.232;2022-07-06T15:04:18;31.60;1.00
62072;DHT22;48031;48.542;13.232;2022-07-06T15:06:45;30.80;1.00
62072;DHT22;48031;48.542;13.232;2022-07-06T15:09:22;30.50;1.00
62072;DHT22;48031;48.542;13.232;2022-07-06T15:11:50;30.00;1.00
62072;DHT22;48031;48.542;13.232;2022-07-06T15:14:17;29.40;1.00
62072;DHT22;48031;48.542;13.232;2022-07-06T15:16:45;29.00;1.00
62072;DHT22;48031;48.542;13.232;2022-07-06T15:19:12;28.60;1.00
62072;DHT22;48031;48.542;13.232;2022-07-06T15:21:39;28.30;1.00
62072;DHT22;48031;48.542;13.232;2022-07-06T15:24:06;28.40;1.00
62072;DHT22;48031;48.542;13.232;2022-07-06T15:26:33;29.30;1.00
62072;DHT22;48031;48.542;13.232;2022-07-06T15:29:00;30.30;1.00
62072;DHT22;48031;48.542;13.232;2022-07-06T15:31:27;31.00;1.00
62072;DHT22;48031;48.542;13.232;2022-07-06T15:33:54;30.70;1.00
62072;DHT22;48031;48.542;13.232;2022-07-06T15:36:21;30.70;1.00
62072;DHT22;48031;48.542;13.232;2022-07-06T15:38:48;30.10;1.00
62072;DHT22;48031;48.542;13.232;2022-07-06T15:41:15;30.00;1.00
62072;DHT22;48031;48.542;13.232;2022-07-06T15:43:42;29.80;1.00
62072;DHT22;48031;48.542;13.232;2022-07-06T15:46:08;29.50;1.00
62072;DHT22;48031;48.542;13.232;2022-07-06T15:48:37;29.20;1.00
62072;DHT22;48031;48.542;13.232;2022-07-06T15:51:04;29.50;1.00
62072;DHT22;48031;48.542;13.232;2022-07-06T15:53:31;29.70;1.00
62072;DHT22;48031;48.542;13.232;2022-07-06T15:55:58;29.70;1.00